createdAt,value
2022-10-25T07:41:55.797Z,99.90
2022-10-25T07:46:52.635Z,99.90
2022-10-25T07:51:46.693Z,99.90
2022-10-25T07:56:40.464Z,99.90
2022-10-25T08:01:36.937Z,99.90
2022-10-25T08:06:30.773Z,99.90
2022-10-25T08:11:24.369Z,99.90
2022-10-25T08:16:18.479Z,99.90
2022-10-25T08:21:13.748Z,99.90
2022-10-25T08:26:07.897Z,99.90
2022-10-25T08:31:02.153Z,99.90
2022-10-25T08:35:55.715Z,99.90
2022-10-25T08:40:57.899Z,99.90
2022-10-25T08:45:57.373Z,99.90
2022-10-25T08:50:54.929Z,99.90
2022-10-25T08:56:05.034Z,99.90
2022-10-25T09:01:12.476Z,99.90
2022-10-25T09:06:19.019Z,99.90
2022-10-25T09:11:25.725Z,99.90
2022-10-25T09:41:27.594Z,99.90
2022-10-25T09:46:26.702Z,99.90
2022-10-25T09:51:24.120Z,99.90
2022-10-25T09:56:18.038Z,99.90
2022-10-25T10:01:21.045Z,99.90
2022-10-25T10:06:19.830Z,99.90
2022-10-25T10:11:18.826Z,99.90
2022-10-25T10:16:21.725Z,99.90
2022-10-25T10:21:19.440Z,99.90
2022-10-25T10:26:18.404Z,99.90
2022-10-25T10:31:12.391Z,99.90
2022-10-25T10:36:23.888Z,99.90
2022-10-25T10:41:24.812Z,99.90
2022-10-25T10:46:23.446Z,99.90
2022-10-25T10:51:44.477Z,99.90
2022-10-25T10:56:38.865Z,99.90
2022-10-25T11:01:34.822Z,99.90
2022-10-25T11:06:32.673Z,99.90
2022-10-25T11:11:26.681Z,99.90
2022-10-25T11:17:00.067Z,99.90
2022-10-25T11:22:13.675Z,99.90
2022-10-25T11:27:22.073Z,99.90
2022-10-25T11:32:50.339Z,99.90
2022-10-25T11:37:52.918Z,99.90
2022-10-25T11:43:06.338Z,99.90
2022-10-25T11:48:21.202Z,99.90
2022-10-25T11:53:37.724Z,99.90
2022-10-25T11:58:46.680Z,99.90
2022-10-25T12:03:58.312Z,99.90
2022-10-25T12:09:08.286Z,99.90
2022-10-25T12:14:06.207Z,99.90
2022-10-25T12:19:09.184Z,99.90
2022-10-25T12:24:05.456Z,99.90
2022-10-25T12:29:02.095Z,99.90
2022-10-25T12:34:00.166Z,99.90
2022-10-25T12:38:56.824Z,99.90
2022-10-25T12:44:04.971Z,98.60
2022-10-25T12:49:26.675Z,95.80
2022-10-25T12:54:36.079Z,94.40
2022-10-25T12:59:41.453Z,92.70
2022-10-25T13:05:00.114Z,86.30
2022-10-25T13:09:54.273Z,80.10
2022-10-25T13:14:52.309Z,77.50
2022-10-25T13:19:54.512Z,75.70
2022-10-25T13:24:48.978Z,71.20
2022-10-25T13:30:01.808Z,69.10
2022-10-25T13:34:59.095Z,70.20
2022-10-25T13:39:55.578Z,67.40
2022-10-25T13:44:56.848Z,64.20
2022-10-25T13:49:50.425Z,63.80
2022-10-25T13:54:53.038Z,63.60
2022-10-25T14:00:11.863Z,66.40
2022-10-25T14:05:06.101Z,68.20
2022-10-25T14:10:00.373Z,69.30
2022-10-25T14:15:01.534Z,72.70
2022-10-25T14:20:00.356Z,79.40
2022-10-25T14:24:55.934Z,76.30
2022-10-25T14:29:49.627Z,73.60
2022-10-25T14:34:43.713Z,73.10
2022-10-25T14:39:53.304Z,74.10
2022-10-25T14:44:49.447Z,82.70
2022-10-25T14:49:43.211Z,90.50
2022-10-25T14:54:39.376Z,93.20
2022-10-25T14:59:45.063Z,95.10
2022-10-25T15:04:42.444Z,96.80
2022-10-25T15:09:42.621Z,98.40
2022-10-25T15:14:38.756Z,99.80
2022-10-25T15:19:32.309Z,99.90
2022-10-25T15:24:28.870Z,99.90
2022-10-25T15:29:45.072Z,99.90
2022-10-25T15:34:40.236Z,99.90
2022-10-25T15:39:33.955Z,99.90
2022-10-25T15:44:27.912Z,99.90
2022-10-25T15:49:21.683Z,99.90
2022-10-25T15:54:18.408Z,99.90
2022-10-25T15:59:12.346Z,99.90
2022-10-25T16:04:06.287Z,99.90
2022-10-25T16:09:02.839Z,99.90
2022-10-25T16:13:58.187Z,99.90
2022-10-25T16:18:53.853Z,99.90
2022-10-25T16:23:48.651Z,99.90
2022-10-25T16:28:42.711Z,99.90
2022-10-25T16:33:43.300Z,99.90
2022-10-25T16:38:37.755Z,99.90
2022-10-25T16:43:49.180Z,99.90
2022-10-25T16:48:47.471Z,99.90
2022-10-25T16:53:50.720Z,99.90
2022-10-25T16:58:57.585Z,99.90
2022-10-25T17:04:24.470Z,99.90
2022-10-25T17:09:21.281Z,99.90
2022-10-25T17:14:15.799Z,99.90
2022-10-25T17:19:11.079Z,99.90
2022-10-25T17:24:09.758Z,99.90
2022-10-25T17:29:04.054Z,99.90
2022-10-25T17:33:58.886Z,99.90
2022-10-25T17:38:53.570Z,99.90
2022-10-25T17:43:50.928Z,99.90
2022-10-25T17:48:48.820Z,99.90
2022-10-25T17:53:43.285Z,99.90
2022-10-25T17:58:39.436Z,99.90
2022-10-25T18:03:35.340Z,99.90
2022-10-25T18:08:29.716Z,99.90
2022-10-25T18:13:25.020Z,99.90
2022-10-25T18:18:19.074Z,99.90
2022-10-25T18:23:15.188Z,99.90
